Time;durP1;ratioP1;P1;durP2;ratioP2;P2;SDS_P1;SDS_P2;PMS_P1;PMS_P2;Temp;Humidity;BMP_temperature;BMP_pressure;BME280_temperature;BME280_humidity;BME280_pressure;Samples;Min_cycle;Max_cycle;Signal;HPM_P1;HPM_P2
2023/06/05 00:02:17;;;;;;;6.53;4.40;;;25.90;99.90;;;;;;5034994;28;20049;-51
2023/06/05 00:04:43;;;;;;;6.60;4.97;;;25.90;99.90;;;;;;5017575;28;20032;-51
2023/06/05 00:07:09;;;;;;;5.00;4.50;;;25.90;99.90;;;;;;5035192;28;20451;-51
2023/06/05 00:09:35;;;;;;;8.05;5.22;;;25.90;99.90;;;;;;5035310;28;20029;-51
2023/06/05 00:12:01;;;;;;;6.28;4.32;;;25.90;99.90;;;;;;5035016;28;20032;-51
2023/06/05 00:14:27;;;;;;;6.20;4.32;;;25.90;99.90;;;;;;5035067;28;20056;-51
2023/06/05 00:16:52;;;;;;;6.57;4.78;;;25.90;99.90;;;;;;5035268;28;20030;-50
2023/06/05 00:19:18;;;;;;;6.30;4.43;;;25.90;99.90;;;;;;5035130;28;20032;-51
2023/06/05 00:21:44;;;;;;;6.95;4.43;;;25.90;99.90;;;;;;5017295;28;20028;-51
2023/06/05 00:24:10;;;;;;;7.30;4.55;;;25.90;99.90;;;;;;5034722;28;20031;-51
2023/06/05 00:26:36;;;;;;;6.15;4.93;;;25.90;99.90;;;;;;5034783;28;20120;-50
2023/06/05 00:29:01;;;;;;;6.03;4.07;;;25.90;99.90;;;;;;5035073;28;20055;-50
2023/06/05 00:31:27;;;;;;;5.40;4.15;;;25.90;99.90;;;;;;5034690;28;20036;-50
2023/06/05 00:33:53;;;;;;;5.68;4.38;;;25.90;99.90;;;;;;5034673;28;20032;-50
2023/06/05 00:36:22;;;;;;;5.90;4.70;;;25.80;99.90;;;;;;5034733;28;20025;-50
2023/06/05 00:38:49;;;;;;;5.80;4.43;;;25.80;99.90;;;;;;5035103;28;20466;-50
2023/06/05 00:41:15;;;;;;;5.22;4.47;;;25.80;99.90;;;;;;5000845;28;20053;-50
2023/06/05 00:43:41;;;;;;;7.43;4.70;;;25.80;99.90;;;;;;5034661;28;20119;-51
2023/06/05 00:46:07;;;;;;;6.53;4.90;;;25.80;99.90;;;;;;5034541;28;20163;-51
2023/06/05 00:48:34;;;;;;;4.65;4.13;;;25.80;99.90;;;;;;5034460;28;20627;-50
2023/06/05 00:51:00;;;;;;;5.82;4.22;;;25.80;99.90;;;;;;5034291;28;20037;-50
2023/06/05 00:53:26;;;;;;;5.72;4.25;;;25.80;99.90;;;;;;5034376;28;20469;-51
2023/06/05 00:55:52;;;;;;;6.90;3.77;;;25.80;99.90;;;;;;5034328;28;20103;-51
2023/06/05 00:58:18;;;;;;;5.43;4.45;;;25.80;99.90;;;;;;5033025;28;20473;-51
2023/06/05 01:00:45;;;;;;;5.93;4.32;;;25.80;99.90;;;;;;5045463;22;20417;-52
2023/06/05 01:03:12;;;;;;;6.45;4.32;;;25.80;99.90;;;;;;5033871;28;20101;-51
2023/06/05 01:05:38;;;;;;;;;;;25.80;99.90;;;;;;5016363;28;20021;-53
2023/06/05 01:08:05;;;;;;;7.55;4.32;;;25.80;99.90;;;;;;5033715;28;19913;-52
2023/06/05 01:10:32;;;;;;;5.70;4.20;;;25.80;99.90;;;;;;5031051;28;20052;-51
2023/06/05 01:13:00;;;;;;;5.57;4.05;;;25.80;99.90;;;;;;5032174;28;20439;-51
2023/06/05 01:15:29;;;;;;;9.63;4.38;;;25.80;99.90;;;;;;5030072;28;20458;-52
2023/06/05 01:17:58;;;;;;;5.70;3.85;;;25.80;99.90;;;;;;5031826;28;20028;-52
2023/06/05 01:20:34;;;;;;;5.70;4.38;;;25.80;99.90;;;;;;5033714;28;20017;-52
2023/06/05 01:23:02;;;;;;;6.80;4.40;;;25.80;99.90;;;;;;5033771;28;20045;-53
2023/06/05 01:25:29;;;;;;;;;;;25.80;99.90;;;;;;5034071;28;20382;-52
2023/06/05 01:28:02;;;;;;;5.68;3.92;;;25.80;99.90;;;;;;5015859;28;19913;-54
2023/06/05 01:30:34;;;;;;;6.80;4.22;;;25.80;99.90;;;;;;5032844;28;20022;-54
2023/06/05 01:33:17;;;;;;;5.32;4.55;;;25.80;99.90;;;;;;5033622;28;20025;-52
2023/06/05 01:35:45;;;;;;;5.78;4.05;;;25.80;99.90;;;;;;5033782;28;20022;-54
2023/06/05 01:38:12;;;;;;;4.13;3.72;;;25.80;99.90;;;;;;5015758;28;20017;-54
2023/06/05 01:40:39;;;;;;;4.82;4.13;;;25.80;99.90;;;;;;5015999;28;20021;-53
2023/06/05 01:43:07;;;;;;;6.80;3.88;;;25.80;99.90;;;;;;5032305;28;20148;-54
2023/06/05 01:45:33;;;;;;;4.75;3.97;;;25.80;99.90;;;;;;5033300;28;20029;-53
2023/06/05 01:47:59;;;;;;;4.07;3.30;;;25.80;99.90;;;;;;5033435;28;20033;-52
2023/06/05 01:50:26;;;;;;;5.32;3.78;;;25.80;99.90;;;;;;5033411;28;20366;-51
2023/06/05 01:52:52;;;;;;;5.03;3.63;;;25.80;99.90;;;;;;5033338;28;20034;-52
2023/06/05 01:55:23;;;;;;;3.92;3.40;;;25.80;99.90;;;;;;5033321;28;20034;-51
2023/06/05 01:57:50;;;;;;;4.30;3.55;;;25.80;99.90;;;;;;5016257;28;20022;-51
2023/06/05 02:00:17;;;;;;;5.72;4.10;;;25.80;99.90;;;;;;5033816;28;20109;-51
2023/06/05 02:02:45;;;;;;;6.32;3.58;;;25.80;99.90;;;;;;5033233;28;20033;-51
2023/06/05 02:05:12;;;;;;;3.88;3.47;;;25.80;99.90;;;;;;5033279;28;20371;-51
2023/06/05 02:07:43;;;;;;;4.68;3.70;;;25.70;99.90;;;;;;5033277;28;20025;-51
2023/06/05 02:10:09;;;;;;;4.53;3.70;;;25.80;99.90;;;;;;5033213;28;20539;-51
2023/06/05 02:12:37;;;;;;;5.07;3.83;;;25.70;99.90;;;;;;5036257;28;20037;-52
2023/06/05 02:15:03;;;;;;;;;;;25.80;99.90;;;;;;5037510;28;20018;-51
2023/06/05 02:17:28;;;;;;;4.25;3.33;;;25.80;99.90;;;;;;5037326;28;19905;-52
2023/06/05 02:19:54;;;;;;;5.50;3.85;;;25.80;99.90;;;;;;5037291;28;20022;-51
2023/06/05 02:22:23;;;;;;;4.82;4.00;;;25.80;99.90;;;;;;5019311;28;20385;-51
2023/06/05 02:24:51;;;;;;;5.18;3.80;;;25.70;99.90;;;;;;5036954;28;20087;-52
2023/06/05 02:27:17;;;;;;;3.78;3.42;;;25.70;99.90;;;;;;5036941;28;20124;-51
2023/06/05 02:29:43;;;;;;;6.57;3.95;;;25.70;99.90;;;;;;5037355;28;20025;-51
2023/06/05 02:32:10;;;;;;;4.72;3.50;;;25.70;99.90;;;;;;5037093;28;20029;-53
2023/06/05 02:34:36;;;;;;;5.25;3.40;;;25.70;99.90;;;;;;5036953;28;20022;-51
2023/06/05 02:37:02;;;;;;;4.18;3.33;;;25.70;99.90;;;;;;5036898;28;20099;-51
2023/06/05 02:39:30;;;;;;;4.57;3.50;;;25.70;99.90;;;;;;5036779;28;20028;-51
2023/06/05 02:41:56;;;;;;;4.85;3.97;;;25.70;99.90;;;;;;5019027;28;20305;-51
2023/06/05 02:44:22;;;;;;;3.83;3.30;;;25.70;99.90;;;;;;5036636;28;20109;-52
2023/06/05 02:46:48;;;;;;;4.72;3.70;;;25.70;99.90;;;;;;5036646;28;20120;-51
2023/06/05 02:49:14;;;;;;;5.25;3.92;;;25.70;99.90;;;;;;5036654;28;20195;-52
2023/06/05 02:51:39;;;;;;;4.28;3.20;;;25.80;99.90;;;;;;5036609;28;20052;-52
2023/06/05 02:54:06;;;;;;;3.92;3.13;;;25.70;99.90;;;;;;5036465;28;20537;-51
2023/06/05 02:56:32;;;;;;;5.50;3.30;;;25.70;99.90;;;;;;5036462;28;20028;-51
2023/06/05 02:58:58;;;;;;;5.55;3.40;;;25.70;99.90;;;;;;5036389;28;20489;-51
2023/06/05 03:01:25;;;;;;;5.20;3.35;;;25.70;99.90;;;;;;5018098;22;20050;-50
2023/06/05 03:03:52;;;;;;;4.78;3.45;;;25.70;99.90;;;;;;4995759;28;20491;-50
2023/06/05 03:06:18;;;;;;;4.85;3.55;;;25.70;99.90;;;;;;5011790;28;20617;-51
2023/06/05 03:08:44;;;;;;;4.30;3.25;;;25.70;99.90;;;;;;4996893;28;20109;-51
2023/06/05 03:11:10;;;;;;;3.33;2.70;;;25.70;99.90;;;;;;4996843;28;20062;-51
2023/06/05 03:13:36;;;;;;;3.40;2.92;;;25.70;99.90;;;;;;4996893;28;20034;-50
2023/06/05 03:16:02;;;;;;;4.68;3.30;;;25.70;99.90;;;;;;4996833;28;20026;-51
2023/06/05 03:18:28;;;;;;;3.38;2.97;;;25.70;99.90;;;;;;4996746;28;20040;-50
2023/06/05 03:20:55;;;;;;;5.28;3.38;;;25.70;99.90;;;;;;4996790;28;20105;-50
2023/06/05 03:23:25;;;;;;;4.32;3.22;;;25.70;99.90;;;;;;4995850;28;20034;-50
2023/06/05 03:25:51;;;;;;;3.92;3.22;;;25.70;99.90;;;;;;4996838;28;20026;-50
2023/06/05 03:28:22;;;;;;;3.78;3.33;;;25.70;99.90;;;;;;4996328;28;20035;-50
2023/06/05 03:30:48;;;;;;;5.05;3.17;;;25.70;99.90;;;;;;4996587;28;20050;-50
2023/06/05 03:33:15;;;;;;;4.03;3.22;;;25.70;99.90;;;;;;5011400;28;20109;-49
2023/06/05 03:35:46;;;;;;;3.28;2.70;;;25.70;99.90;;;;;;4996310;28;20493;-50
2023/06/05 03:38:13;;;;;;;4.32;3.00;;;25.70;99.90;;;;;;4996285;28;20113;-50
2023/06/05 03:40:39;;;;;;;3.65;3.10;;;25.70;99.90;;;;;;4995076;28;20132;-50
2023/06/05 03:43:05;;;;;;;4.10;2.83;;;25.70;99.90;;;;;;4996147;28;20502;-51
2023/06/05 03:45:32;;;;;;;3.53;2.80;;;25.70;99.90;;;;;;5011307;28;20022;-51
2023/06/05 03:47:59;;;;;;;4.53;3.00;;;25.70;99.90;;;;;;4995024;28;20440;-51
2023/06/05 03:50:28;;;;;;;4.18;3.10;;;25.70;99.90;;;;;;4994940;28;20280;-50
2023/06/05 03:53:02;;;;;;;4.07;2.83;;;25.70;99.90;;;;;;4994130;28;20670;-51
2023/06/05 03:55:40;;;;;;;5.63;2.70;;;25.70;99.90;;;;;;4995081;28;20015;-51
2023/06/05 03:58:13;;;;;;;2.72;2.38;;;25.70;99.90;;;;;;4994824;28;20487;-51
2023/06/05 04:00:39;;;;;;;3.30;3.00;;;25.70;99.90;;;;;;4997800;28;20073;-51
2023/06/05 04:03:04;;;;;;;3.33;2.92;;;25.70;99.90;;;;;;5014145;28;20418;-50
2023/06/05 04:05:31;;;;;;;3.00;2.70;;;25.60;99.90;;;;;;5014597;28;20034;-51
2023/06/05 04:07:56;;;;;;;3.95;3.20;;;25.60;99.90;;;;;;5013056;28;20030;-51
2023/06/05 04:10:22;;;;;;;4.50;2.83;;;25.70;99.90;;;;;;5014835;28;20036;-51
2023/06/05 04:12:49;;;;;;;4.63;2.92;;;25.60;99.90;;;;;;5013857;28;20026;-51
2023/06/05 04:15:15;;;;;;;2.47;2.22;;;25.60;99.90;;;;;;5014549;28;20200;-51
2023/06/05 04:17:40;;;;;;;3.83;3.28;;;25.60;99.90;;;;;;5013675;28;20112;-51
2023/06/05 04:20:13;;;;;;;5.07;3.05;;;25.60;99.90;;;;;;5013302;28;20022;-50
2023/06/05 04:22:39;;;;;;;3.25;2.72;;;25.60;99.90;;;;;;5013150;28;20160;-51
2023/06/05 04:25:05;;;;;;;4.97;3.35;;;25.60;99.90;;;;;;5013538;28;20105;-51
2023/06/05 04:27:31;;;;;;;3.92;2.45;;;25.60;99.90;;;;;;5013412;28;20044;-51
2023/06/05 04:29:57;;;;;;;3.58;3.17;;;25.60;99.90;;;;;;5014643;28;20026;-52
2023/06/05 04:32:22;;;;;;;3.70;2.70;;;25.60;99.90;;;;;;5013114;28;20492;-52
2023/06/05 04:34:48;;;;;;;3.63;2.92;;;25.60;99.90;;;;;;5013684;28;20109;-52
2023/06/05 04:37:14;;;;;;;4.28;3.60;;;25.60;99.90;;;;;;5012601;28;20153;-51
2023/06/05 04:39:40;;;;;;;4.13;2.92;;;25.60;99.90;;;;;;5014880;28;20096;-50
2023/06/05 04:42:07;;;;;;;6.38;3.38;;;25.60;99.90;;;;;;5012609;28;20107;-50
2023/06/05 04:44:33;;;;;;;3.00;2.63;;;25.60;99.90;;;;;;5012722;28;20095;-51
2023/06/05 04:46:58;;;;;;;5.20;3.03;;;25.60;99.90;;;;;;5011724;28;20469;-50
2023/06/05 04:49:24;;;;;;;3.58;2.88;;;25.60;99.90;;;;;;5013638;28;20050;-49
2023/06/05 04:51:50;;;;;;;3.90;3.00;;;25.60;99.90;;;;;;5014355;28;20022;-50
2023/06/05 04:54:15;;;;;;;3.50;2.97;;;25.60;99.90;;;;;;5014056;28;20124;-51
2023/06/05 04:56:41;;;;;;;3.00;2.45;;;25.60;99.90;;;;;;5014073;28;20501;-50
2023/06/05 04:59:07;;;;;;;3.88;3.05;;;25.60;99.90;;;;;;5013863;28;20049;-50
2023/06/05 05:01:33;;;;;;;4.63;3.30;;;25.60;99.90;;;;;;5013823;28;20117;-50
2023/06/05 05:03:59;;;;;;;5.35;2.92;;;25.60;99.90;;;;;;5014031;28;20132;-50
2023/06/05 05:06:25;;;;;;;3.45;2.95;;;25.60;99.90;;;;;;5013743;28;20088;-51
2023/06/05 05:08:51;;;;;;;4.78;3.78;;;25.60;99.90;;;;;;5014055;28;20050;-50
2023/06/05 05:11:18;;;;;;;3.67;2.97;;;25.60;99.90;;;;;;5013532;28;20057;-50
2023/06/05 05:13:44;;;;;;;3.72;2.65;;;25.60;99.90;;;;;;5013467;28;20490;-50
2023/06/05 05:16:10;;;;;;;4.97;3.10;;;25.60;99.90;;;;;;5011915;28;20029;-50
2023/06/05 05:18:42;;;;;;;4.38;2.83;;;25.60;99.90;;;;;;5013578;28;20054;-51
2023/06/05 05:21:08;;;;;;;4.55;3.53;;;25.60;99.90;;;;;;5013479;28;20040;-50
2023/06/05 05:23:34;;;;;;;3.33;2.60;;;25.60;99.90;;;;;;5013831;28;20022;-50
2023/06/05 05:26:01;;;;;;;3.47;2.70;;;25.60;99.90;;;;;;5013246;28;20500;-50
2023/06/05 05:28:30;;;;;;;3.05;2.75;;;25.50;99.90;;;;;;5013752;28;20026;-49
2023/06/05 05:30:56;;;;;;;2.95;2.63;;;25.50;99.90;;;;;;5013571;28;20034;-50
2023/06/05 05:33:23;;;;;;;3.27;2.87;;;25.50;99.90;;;;;;5013295;28;20030;-51
2023/06/05 05:35:49;;;;;;;3.65;2.75;;;25.60;99.90;;;;;;5013495;28;20080;-50
2023/06/05 05:38:15;;;;;;;3.50;3.20;;;25.60;99.90;;;;;;4998575;28;20425;-50
2023/06/05 05:40:41;;;;;;;3.95;2.95;;;25.60;99.90;;;;;;5013310;28;20113;-50
2023/06/05 05:43:06;;;;;;;3.63;3.13;;;25.50;99.90;;;;;;5013066;28;20441;-51
2023/06/05 05:45:32;;;;;;;3.63;3.10;;;25.60;99.90;;;;;;5013419;28;20077;-50
2023/06/05 05:47:58;;;;;;;4.95;3.15;;;25.60;99.90;;;;;;5012924;28;20034;-51
2023/06/05 05:50:24;;;;;;;3.55;3.10;;;25.60;99.90;;;;;;5013254;28;20545;-50
2023/06/05 05:52:51;;;;;;;3.50;3.20;;;25.60;99.90;;;;;;5012759;28;20022;-50
2023/06/05 05:55:17;;;;;;;;;;;25.50;99.90;;;;;;5013459;28;20018;-50
2023/06/05 05:57:43;;;;;;;8.90;3.35;;;25.50;99.90;;;;;;5012854;28;19906;-50
2023/06/05 06:00:12;;;;;;;3.83;2.97;;;25.60;99.90;;;;;;5011625;28;20041;-51
2023/06/05 06:02:39;;;;;;;4.60;3.35;;;25.50;99.90;;;;;;5012432;28;20054;-51
2023/06/05 06:05:05;;;;;;;4.97;3.47;;;25.60;99.90;;;;;;5000567;28;20323;-51
2023/06/05 06:07:31;;;;;;;6.10;3.50;;;25.60;99.90;;;;;;5012973;28;20441;-50
2023/06/05 06:09:58;;;;;;;8.18;3.38;;;25.60;99.90;;;;;;5012671;28;20080;-50
2023/06/05 06:12:24;;;;;;;3.58;3.28;;;25.60;99.90;;;;;;5012835;28;20026;-51
2023/06/05 06:14:51;;;;;;;4.90;3.83;;;25.50;99.90;;;;;;5012169;28;20101;-51
2023/06/05 06:17:17;;;;;;;4.05;2.97;;;25.60;99.90;;;;;;4996670;28;20026;-51
2023/06/05 06:19:43;;;;;;;3.78;3.00;;;25.60;99.90;;;;;;5012945;28;20022;-51
2023/06/05 06:22:11;;;;;;;3.25;2.92;;;25.50;99.90;;;;;;5012760;28;20032;-51
2023/06/05 06:24:39;;;;;;;3.47;3.17;;;25.60;99.90;;;;;;5012388;28;20497;-51
2023/06/05 06:27:04;;;;;;;;;;;25.60;99.90;;;;;;5012837;28;20062;-51
2023/06/05 06:29:31;;;;;;;21.13;9.88;;;25.60;99.90;;;;;;5012798;28;19948;-51
2023/06/05 06:31:57;;;;;;;15.82;9.38;;;25.60;99.90;;;;;;5012736;28;20026;-52
2023/06/05 06:34:26;;;;;;;15.20;8.50;;;25.50;99.90;;;;;;5012514;28;20376;-52
2023/06/05 06:36:51;;;;;;;9.35;7.28;;;25.40;99.90;;;;;;5012545;28;20076;-53
2023/06/05 06:39:22;;;;;;;21.17;8.57;;;25.40;99.90;;;;;;5012579;28;20426;-52
2023/06/05 06:41:47;;;;;;;13.80;9.10;;;25.30;99.90;;;;;;5012425;28;20076;-53
2023/06/05 06:44:13;;;;;;;13.85;7.50;;;25.30;99.90;;;;;;5012786;28;20037;-53
2023/06/05 06:46:39;;;;;;;13.68;7.28;;;25.30;99.90;;;;;;5012214;28;20116;-52
2023/06/05 06:49:06;;;;;;;11.45;6.30;;;25.20;99.90;;;;;;5012301;28;20394;-52
2023/06/05 06:51:32;;;;;;;9.98;6.13;;;25.20;99.90;;;;;;5010926;28;20105;-51
2023/06/05 06:53:58;;;;;;;12.55;5.63;;;25.20;99.90;;;;;;5010959;28;20041;-52
2023/06/05 06:56:25;;;;;;;12.00;5.53;;;25.10;99.90;;;;;;5011050;28;20026;-52
2023/06/05 06:58:52;;;;;;;12.93;5.38;;;25.10;99.90;;;;;;5013686;28;20018;-51
2023/06/05 07:01:19;;;;;;;10.45;6.50;;;25.10;99.90;;;;;;5015674;28;20049;-52
2023/06/05 07:03:46;;;;;;;12.95;6.65;;;25.00;99.90;;;;;;5015748;28;20030;-53
2023/06/05 07:06:12;;;;;;;13.80;6.03;;;25.00;99.90;;;;;;5015779;28;20176;-51
2023/06/05 07:08:38;;;;;;;14.82;11.07;;;25.00;99.90;;;;;;5015924;28;20032;-51
2023/06/05 07:11:04;;;;;;;13.80;10.40;;;25.00;99.90;;;;;;5016276;28;20018;-52
2023/06/05 07:13:30;;;;;;;19.98;10.30;;;25.00;99.90;;;;;;5015556;28;20418;-51
2023/06/05 07:15:56;;;;;;;14.50;10.15;;;25.00;99.90;;;;;;5015304;28;20092;-51
2023/06/05 07:18:21;;;;;;;14.50;9.68;;;25.00;99.90;;;;;;5015540;28;20022;-52
2023/06/05 07:20:47;;;;;;;13.10;7.63;;;25.00;99.90;;;;;;5015681;28;20360;-53
2023/06/05 07:23:14;;;;;;;10.38;7.10;;;25.00;99.90;;;;;;5015583;28;20021;-53
2023/06/05 07:25:40;;;;;;;9.70;6.57;;;25.00;99.90;;;;;;5015487;28;20025;-54
2023/06/05 07:28:10;;;;;;;9.95;6.70;;;25.00;99.90;;;;;;5015638;28;20038;-54
2023/06/05 07:30:36;;;;;;;10.20;6.40;;;25.00;99.90;;;;;;5015502;28;20014;-53
2023/06/05 07:33:03;;;;;;;12.00;7.20;;;25.00;99.90;;;;;;5015350;28;20113;-52
2023/06/05 07:35:29;;;;;;;10.40;6.80;;;25.00;99.90;;;;;;5015610;28;20021;-51
2023/06/05 07:37:55;;;;;;;9.20;6.60;;;25.10;99.90;;;;;;5013866;28;20026;-51
2023/06/05 07:40:21;;;;;;;9.13;6.55;;;25.10;99.90;;;;;;5015486;28;20529;-51
2023/06/05 07:42:47;;;;;;;8.70;5.82;;;25.10;99.90;;;;;;5014927;28;20419;-52
2023/06/05 07:45:12;;;;;;;9.20;6.32;;;25.10;99.90;;;;;;5015326;28;20022;-51
2023/06/05 07:47:38;;;;;;;10.55;6.50;;;25.10;99.90;;;;;;5015356;28;20068;-52
2023/06/05 07:50:06;;;;;;;10.45;6.00;;;25.10;99.90;;;;;;5015202;28;20432;-51
2023/06/05 07:52:32;;;;;;;17.60;7.30;;;25.20;99.90;;;;;;5015470;28;20053;-51
2023/06/05 07:54:58;;;;;;;9.02;6.10;;;25.20;99.90;;;;;;5015198;28;20068;-52
2023/06/05 07:57:24;;;;;;;7.70;5.80;;;25.20;99.90;;;;;;5015126;28;20484;-51
2023/06/05 07:59:50;;;;;;;9.45;6.25;;;25.20;99.90;;;;;;5015060;28;20022;-51
2023/06/05 08:02:18;;;;;;;9.38;6.78;;;25.30;99.90;;;;;;5014782;28;20050;-51
2023/06/05 08:04:44;;;;;;;17.10;6.47;;;25.30;99.90;;;;;;5015068;28;20029;-51
2023/06/05 08:07:10;;;;;;;9.55;6.25;;;25.30;99.90;;;;;;5014875;28;20041;-51
2023/06/05 08:09:39;;;;;;;11.68;5.95;;;25.30;99.90;;;;;;5014612;28;20026;-52
2023/06/05 08:12:05;;;;;;;9.07;5.72;;;25.30;99.90;;;;;;5014683;28;20360;-51
2023/06/05 08:14:31;;;;;;;11.68;6.45;;;25.30;99.90;;;;;;5014956;28;20022;-52
2023/06/05 08:16:57;;;;;;;7.97;5.32;;;25.30;99.90;;;;;;5014575;28;20479;-53
2023/06/05 08:19:23;;;;;;;9.60;5.82;;;25.40;99.90;;;;;;5013289;28;20087;-52
2023/06/05 08:21:57;;;;;;;8.43;6.03;;;25.40;99.90;;;;;;5014155;28;20504;-51
2023/06/05 08:24:23;;;;;;;11.98;6.38;;;25.30;99.90;;;;;;5014735;28;20034;-51
2023/06/05 08:26:48;;;;;;;11.30;6.55;;;25.40;99.90;;;;;;5013922;28;20021;-52
2023/06/05 08:29:14;;;;;;;9.15;6.50;;;25.40;99.90;;;;;;5014572;28;20022;-52
2023/06/05 08:31:40;;;;;;;10.13;6.28;;;25.40;99.90;;;;;;5014541;28;20053;-52
2023/06/05 08:34:06;;;;;;;8.95;5.85;;;25.40;99.90;;;;;;5013173;28;20022;-52
2023/06/05 08:36:32;;;;;;;10.23;6.10;;;25.40;99.90;;;;;;5014455;28;20022;-52
2023/06/05 08:39:04;;;;;;;9.95;6.10;;;25.40;99.90;;;;;;5014416;28;20105;-52
2023/06/05 08:41:31;;;;;;;11.45;7.10;;;25.40;99.90;;;;;;5014285;28;20494;-52
2023/06/05 08:43:57;;;;;;;9.10;6.05;;;25.40;99.90;;;;;;5014210;28;20022;-52
2023/06/05 08:46:28;;;;;;;10.02;6.25;;;25.40;99.90;;;;;;5013825;28;20494;-52
2023/06/05 08:48:55;;;;;;;12.05;7.25;;;25.40;99.90;;;;;;5014250;28;20105;-52
2023/06/05 08:51:21;;;;;;;16.27;7.07;;;25.40;99.90;;;;;;5014142;28;20018;-52
2023/06/05 08:53:53;;;;;;;10.90;6.70;;;25.50;99.90;;;;;;5013681;28;20044;-52
2023/06/05 08:56:19;;;;;;;27.63;7.47;;;25.40;99.90;;;;;;5014197;28;20041;-50
2023/06/05 08:58:46;;;;;;;16.30;7.32;;;25.50;99.90;;;;;;5014088;28;20028;-50
2023/06/05 09:01:12;;;;;;;17.10;7.90;;;25.50;99.90;;;;;;5013929;28;20034;-50
2023/06/05 09:03:37;;;;;;;16.15;7.78;;;25.50;99.90;;;;;;5013916;28;20084;-50
2023/06/05 09:06:04;;;;;;;15.98;7.00;;;25.50;99.90;;;;;;5013793;28;20021;-50
2023/06/05 09:08:33;;;;;;;13.65;6.85;;;25.50;99.90;;;;;;5013927;28;20041;-50
2023/06/05 09:11:25;;;;;;;14.30;7.60;;;25.50;99.90;;;;;;5013683;28;20050;-50
2023/06/05 09:13:51;;;;;;;12.88;6.88;;;25.50;99.90;;;;;;5013622;28;20040;-49
2023/06/05 09:16:37;;;;;;;13.57;6.33;;;25.60;99.90;;;;;;5013846;28;20054;-50
2023/06/05 09:19:04;;;;;;;13.43;6.90;;;25.50;99.90;;;;;;5013717;28;20025;-52
2023/06/05 09:21:32;;;;;;;11.57;6.45;;;25.60;99.90;;;;;;5013039;28;20479;-53
2023/06/05 09:24:17;;;;;;;13.68;6.82;;;25.60;99.90;;;;;;5013567;28;20026;-51
2023/06/05 09:27:13;;;;;;;12.93;6.15;;;25.60;99.90;;;;;;5013893;28;20390;-51
2023/06/05 09:29:41;;;;;;;9.63;5.82;;;25.60;99.90;;;;;;5013433;28;20487;-52
2023/06/05 09:32:21;;;;;;;8.45;5.50;;;25.60;99.90;;;;;;5013569;28;20037;-51
2023/06/05 09:34:59;;;;;;;12.45;6.45;;;25.60;99.90;;;;;;5013580;28;20017;-52
2023/06/05 09:37:35;;;;;;;10.18;6.65;;;25.60;99.90;;;;;;5013246;28;20104;-52
2023/06/05 09:40:00;;;;;;;11.85;6.63;;;25.60;99.90;;;;;;5013588;28;20389;-52
2023/06/05 09:42:33;;;;;;;9.70;5.40;;;25.60;99.90;;;;;;5012937;28;20026;-52
2023/06/05 09:45:00;;;;;;;9.05;5.72;;;25.60;99.90;;;;;;5013482;28;20069;-52
2023/06/05 09:47:26;;;;;;;12.45;6.60;;;25.60;99.90;;;;;;5012945;28;20032;-52
2023/06/05 09:49:51;;;;;;;11.05;5.85;;;25.60;99.90;;;;;;5013462;28;20018;-52
2023/06/05 09:52:17;;;;;;;11.57;6.43;;;25.60;99.90;;;;;;5013133;28;20121;-51
2023/06/05 09:54:45;;;;;;;12.68;6.05;;;25.70;99.90;;;;;;5012923;28;20026;-51
2023/06/05 09:57:12;;;;;;;12.77;5.85;;;25.70;99.90;;;;;;5013185;28;20376;-52
2023/06/05 09:59:57;;;;;;;12.70;5.78;;;25.70;99.90;;;;;;5013055;28;20383;-51
2023/06/05 10:02:34;;;;;;;8.40;6.05;;;25.70;99.90;;;;;;5012856;28;20042;-52
2023/06/05 10:05:03;;;;;;;9.98;5.30;;;25.70;99.90;;;;;;5013314;28;20050;-51
2023/06/05 10:07:31;;;;;;;14.05;6.57;;;25.70;99.90;;;;;;5013022;28;20030;-51
2023/06/05 10:09:57;;;;;;;17.98;5.72;;;25.70;99.90;;;;;;5012834;28;20018;-51
2023/06/05 10:12:27;;;;;;;10.65;5.95;;;25.70;99.90;;;;;;5012772;28;20037;-51
2023/06/05 10:14:55;;;;;;;11.23;5.32;;;25.70;99.90;;;;;;5012684;28;20026;-52
2023/06/05 10:17:21;;;;;;;28.20;6.43;;;25.80;99.90;;;;;;5013019;28;20483;-52
2023/06/05 10:19:47;;;;;;;12.85;5.78;;;25.80;99.90;;;;;;5013029;28;20097;-52
2023/06/05 10:22:16;;;;;;;9.30;5.78;;;25.80;99.90;;;;;;5012467;28;20139;-52
2023/06/05 10:24:46;;;;;;;12.43;4.90;;;25.80;99.90;;;;;;5012822;28;20040;-52
2023/06/05 10:27:37;;;;;;;7.32;4.25;;;25.80;99.90;;;;;;5012986;28;20037;-51
2023/06/05 10:30:16;;;;;;;10.75;4.60;;;25.80;99.90;;;;;;5013352;28;20026;-51
2023/06/05 10:33:09;;;;;;;7.80;4.97;;;25.80;99.90;;;;;;5012714;28;20050;-51
2023/06/05 10:35:54;;;;;;;7.40;4.00;;;25.80;99.90;;;;;;5016550;28;20018;-51
2023/06/05 10:38:25;;;;;;;12.18;5.00;;;25.80;99.90;;;;;;5018485;28;20014;-51
2023/06/05 10:40:57;;;;;;;9.18;4.63;;;25.80;99.90;;;;;;5008923;28;20076;-52
2023/06/05 10:43:27;;;;;;;7.38;4.10;;;25.80;99.90;;;;;;5023097;28;20111;-50
2023/06/05 10:45:54;;;;;;;8.52;4.28;;;25.80;99.90;;;;;;5014506;28;20026;-50
2023/06/05 10:48:20;;;;;;;6.33;4.13;;;25.80;99.90;;;;;;4998095;28;20029;-50
2023/06/05 10:50:45;;;;;;;9.18;6.50;;;25.80;99.90;;;;;;4997613;28;20378;-52
2023/06/05 10:53:44;;;;;;;9.40;6.07;;;25.80;99.90;;;;;;5015092;28;20156;-50
2023/06/05 10:56:57;;;;;;;8.73;4.20;;;25.80;99.90;;;;;;4998211;28;20457;-53
2023/06/05 10:59:25;;;;;;;7.75;3.92;;;25.80;99.90;;;;;;5011707;28;20056;-50
2023/06/05 11:02:19;;;;;;;7.38;3.92;;;25.80;99.90;;;;;;5016219;28;20065;-52
2023/06/05 11:04:47;;;;;;;7.05;4.20;;;25.80;99.90;;;;;;5011318;28;20037;-50
2023/06/05 11:07:23;;;;;;;7.40;4.28;;;25.80;99.90;;;;;;5015430;28;20099;-53
2023/06/05 11:10:07;;;;;;;9.98;5.05;;;25.70;99.90;;;;;;5015966;28;20030;-50
2023/06/05 11:12:39;;;;;;;10.90;4.22;;;25.70;99.90;;;;;;5015615;28;20101;-50
2023/06/05 11:15:06;;;;;;;5.82;4.30;;;25.80;99.90;;;;;;5016099;28;20022;-54
2023/06/05 11:17:34;;;;;;;9.70;5.50;;;25.70;99.90;;;;;;5015642;28;20026;-53
2023/06/05 11:20:04;;;;;;;17.45;6.47;;;25.80;99.90;;;;;;5015236;28;20040;-54
2023/06/05 11:22:30;;;;;;;9.18;4.75;;;25.80;99.90;;;;;;5016161;28;20025;-54
2023/06/05 11:25:15;;;;;;;12.25;5.13;;;25.80;99.90;;;;;;5015608;28;20105;-52
2023/06/05 11:27:42;;;;;;;9.05;4.60;;;25.70;99.90;;;;;;5015390;28;20120;-53
2023/06/05 11:30:18;;;;;;;7.17;4.30;;;25.70;99.90;;;;;;5015097;28;20030;-52
2023/06/05 11:32:45;;;;;;;8.85;3.67;;;25.70;99.90;;;;;;5015349;28;20486;-52
2023/06/05 11:35:11;;;;;;;11.45;5.45;;;25.70;99.90;;;;;;5015518;28;20049;-52
2023/06/05 11:37:38;;;;;;;9.48;5.80;;;25.70;99.90;;;;;;5015598;28;20526;-52
2023/06/05 11:40:10;;;;;;;11.65;5.88;;;25.70;99.90;;;;;;5015697;28;20018;-52
2023/06/05 11:42:38;;;;;;;11.13;7.10;;;25.70;99.90;;;;;;5015234;28;20025;-53
2023/06/05 11:45:10;;;;;;;11.77;5.82;;;25.70;99.90;;;;;;5015029;28;20419;-52
2023/06/05 11:47:36;;;;;;;13.73;5.82;;;25.70;99.90;;;;;;4997383;28;20510;-52
2023/06/05 11:50:13;;;;;;;11.70;5.90;;;25.70;99.90;;;;;;5015205;28;20018;-53
2023/06/05 11:52:39;;;;;;;12.05;6.03;;;25.60;99.90;;;;;;5015395;28;20429;-54
2023/06/05 11:55:21;;;;;;;11.05;4.78;;;25.60;99.90;;;;;;5015404;28;20053;-52
2023/06/05 11:57:49;;;;;;;8.25;3.80;;;25.60;99.90;;;;;;5014881;28;20018;-54
2023/06/05 12:00:16;;;;;;;12.13;4.60;;;25.60;99.90;;;;;;5014999;28;20021;-52
2023/06/05 12:02:46;;;;;;;9.30;4.13;;;25.60;99.90;;;;;;5014898;28;20382;-51
2023/06/05 12:05:12;;;;;;;9.13;4.00;;;25.60;99.90;;;;;;5014725;28;20148;-52
2023/06/05 12:07:39;;;;;;;9.90;4.07;;;25.60;99.90;;;;;;5014001;28;20120;-53
2023/06/05 12:10:10;;;;;;;9.05;3.67;;;25.60;99.90;;;;;;5015072;28;20037;-54
2023/06/05 12:12:56;;;;;;;10.57;3.90;;;25.60;99.90;;;;;;5014528;28;20041;-54
2023/06/05 12:15:22;;;;;;;7.70;4.78;;;25.50;99.90;;;;;;5014793;28;20030;-54
2023/06/05 12:17:52;;;;;;;10.80;3.70;;;25.60;99.90;;;;;;5014836;28;20428;-53
2023/06/05 12:20:20;;;;;;;6.90;3.25;;;25.60;99.90;;;;;;5014123;28;20053;-52
2023/06/05 12:22:46;;;;;;;7.20;3.15;;;25.50;99.90;;;;;;5014375;28;20029;-52
2023/06/05 12:25:22;;;;;;;8.23;2.75;;;25.50;99.90;;;;;;5014728;28;20033;-51
2023/06/05 12:27:48;;;;;;;7.10;3.30;;;25.50;99.90;;;;;;5014312;28;20034;-52
2023/06/05 12:30:18;;;;;;;9.47;2.87;;;25.50;99.90;;;;;;5014660;28;20025;-51
2023/06/05 12:32:44;;;;;;;7.53;2.42;;;25.50;99.90;;;;;;5014669;28;20030;-51
2023/06/05 12:35:23;;;;;;;4.95;2.95;;;25.50;99.90;;;;;;4996674;28;20105;-52
2023/06/05 12:37:49;;;;;;;6.55;3.40;;;25.50;99.90;;;;;;5014660;28;20164;-52
2023/06/05 12:40:20;;;;;;;6.37;2.80;;;25.50;99.90;;;;;;5014163;28;20022;-52
2023/06/05 12:42:47;;;;;;;6.93;2.97;;;25.50;99.90;;;;;;5001639;28;20026;-52
2023/06/05 12:45:13;;;;;;;6.93;2.53;;;25.50;99.90;;;;;;5013235;28;20120;-52
2023/06/05 12:47:40;;;;;;;3.67;1.88;;;25.50;99.90;;;;;;5013648;28;20708;-52
2023/06/05 12:50:07;;;;;;;6.75;2.42;;;25.40;99.90;;;;;;5013884;28;20030;-51
2023/06/05 12:52:33;;;;;;;9.68;2.65;;;25.40;99.90;;;;;;5014563;28;20034;-52